sensor_id;sensor_type;location;lat;lon;timestamp;temperature;humidity
12981;DHT22;6555;50.468;8.480;2022-11-18T00:03:02;11.40;63.60
12981;DHT22;6555;50.468;8.480;2022-11-18T00:08:06;11.40;63.70
12981;DHT22;6555;50.468;8.480;2022-11-18T00:13:10;11.50;63.50
12981;DHT22;6555;50.468;8.480;2022-11-18T00:18:32;11.50;63.50
12981;DHT22;6555;50.468;8.480;2022-11-18T00:23:36;11.40;63.30
12981;DHT22;6555;50.468;8.480;2022-11-18T00:28:39;11.40;63.40
12981;DHT22;6555;50.468;8.480;2022-11-18T00:33:44;11.40;63.60
12981;DHT22;6555;50.468;8.480;2022-11-18T00:38:47;11.40;63.70
12981;DHT22;6555;50.468;8.480;2022-11-18T00:43:50;11.40;63.80
12981;DHT22;6555;50.468;8.480;2022-11-18T00:48:54;11.40;63.80
12981;DHT22;6555;50.468;8.480;2022-11-18T00:53:57;11.50;63.90
12981;DHT22;6555;50.468;8.480;2022-11-18T00:59:00;11.50;63.90
12981;DHT22;6555;50.468;8.480;2022-11-18T01:04:05;11.50;63.70
12981;DHT22;6555;50.468;8.480;2022-11-18T01:09:08;11.50;63.70
12981;DHT22;6555;50.468;8.480;2022-11-18T01:14:14;11.50;63.60
12981;DHT22;6555;50.468;8.480;2022-11-18T01:19:24;11.50;63.80
12981;DHT22;6555;50.468;8.480;2022-11-18T01:30:57;11.40;63.10
12981;DHT22;6555;50.468;8.480;2022-11-18T01:36:43;11.30;63.00
12981;DHT22;6555;50.468;8.480;2022-11-18T01:42:53;11.20;63.10
12981;DHT22;6555;50.468;8.480;2022-11-18T01:48:58;11.10;63.20
12981;DHT22;6555;50.468;8.480;2022-11-18T01:55:34;11.10;63.30
12981;DHT22;6555;50.468;8.480;2022-11-18T02:01:41;11.00;63.30
12981;DHT22;6555;50.468;8.480;2022-11-18T02:07:47;11.00;63.20
12981;DHT22;6555;50.468;8.480;2022-11-18T02:13:22;11.00;63.00
12981;DHT22;6555;50.468;8.480;2022-11-18T02:18:40;10.90;63.00
12981;DHT22;6555;50.468;8.480;2022-11-18T02:24:27;10.80;62.90
12981;DHT22;6555;50.468;8.480;2022-11-18T02:30:09;10.80;63.10
12981;DHT22;6555;50.468;8.480;2022-11-18T02:35:49;10.70;63.10
12981;DHT22;6555;50.468;8.480;2022-11-18T02:41:19;10.60;63.00
12981;DHT22;6555;50.468;8.480;2022-11-18T02:46:52;10.60;63.00
12981;DHT22;6555;50.468;8.480;2022-11-18T02:52:15;10.60;63.00
12981;DHT22;6555;50.468;8.480;2022-11-18T02:57:38;10.50;63.20
12981;DHT22;6555;50.468;8.480;2022-11-18T03:02:56;10.50;63.20
12981;DHT22;6555;50.468;8.480;2022-11-18T03:09:03;10.50;63.40
12981;DHT22;6555;50.468;8.480;2022-11-18T03:14:27;10.50;63.20
12981;DHT22;6555;50.468;8.480;2022-11-18T03:20:10;10.50;63.20
12981;DHT22;6555;50.468;8.480;2022-11-18T03:26:02;10.40;63.40
12981;DHT22;6555;50.468;8.480;2022-11-18T03:31:23;10.40;63.40
12981;DHT22;6555;50.468;8.480;2022-11-18T03:36:41;10.40;63.30
12981;DHT22;6555;50.468;8.480;2022-11-18T03:48:27;10.30;63.30
12981;DHT22;6555;50.468;8.480;2022-11-18T03:53:36;10.30;63.20
12981;DHT22;6555;50.468;8.480;2022-11-18T03:58:45;10.30;63.50
12981;DHT22;6555;50.468;8.480;2022-11-18T04:03:55;10.30;63.70
12981;DHT22;6555;50.468;8.480;2022-11-18T04:09:16;10.30;64.50
12981;DHT22;6555;50.468;8.480;2022-11-18T04:15:20;10.30;63.70
12981;DHT22;6555;50.468;8.480;2022-11-18T04:20:33;10.30;63.70
12981;DHT22;6555;50.468;8.480;2022-11-18T04:25:56;10.30;63.70
12981;DHT22;6555;50.468;8.480;2022-11-18T04:31:17;10.40;63.80
12981;DHT22;6555;50.468;8.480;2022-11-18T04:36:51;10.40;63.70
12981;DHT22;6555;50.468;8.480;2022-11-18T04:42:24;10.40;63.70
12981;DHT22;6555;50.468;8.480;2022-11-18T04:48:01;10.40;63.70
12981;DHT22;6555;50.468;8.480;2022-11-18T04:54:20;10.40;63.80
12981;DHT22;6555;50.468;8.480;2022-11-18T05:21:34;10.50;63.70
12981;DHT22;6555;50.468;8.480;2022-11-18T05:35:30;10.40;63.90
12981;DHT22;6555;50.468;8.480;2022-11-18T05:42:12;10.30;63.70
12981;DHT22;6555;50.468;8.480;2022-11-18T05:48:25;10.30;64.00
12981;DHT22;6555;50.468;8.480;2022-11-18T05:54:39;10.30;64.20
12981;DHT22;6555;50.468;8.480;2022-11-18T06:00:32;10.30;64.90
12981;DHT22;6555;50.468;8.480;2022-11-18T06:06:31;10.40;64.30
12981;DHT22;6555;50.468;8.480;2022-11-18T06:12:14;10.40;64.20
12981;DHT22;6555;50.468;8.480;2022-11-18T06:43:50;10.30;64.20
12981;DHT22;6555;50.468;8.480;2022-11-18T06:50:21;10.30;64.40
12981;DHT22;6555;50.468;8.480;2022-11-18T06:56:30;10.40;64.40
12981;DHT22;6555;50.468;8.480;2022-11-18T07:02:02;10.40;64.50
12981;DHT22;6555;50.468;8.480;2022-11-18T07:08:02;10.40;64.30
12981;DHT22;6555;50.468;8.480;2022-11-18T07:13:43;10.50;64.40
12981;DHT22;6555;50.468;8.480;2022-11-18T07:18:50;10.50;64.20
12981;DHT22;6555;50.468;8.480;2022-11-18T07:23:53;10.50;64.40
12981;DHT22;6555;50.468;8.480;2022-11-18T07:28:56;10.50;64.30
12981;DHT22;6555;50.468;8.480;2022-11-18T07:34:01;10.50;64.30
12981;DHT22;6555;50.468;8.480;2022-11-18T07:39:05;10.60;64.40
12981;DHT22;6555;50.468;8.480;2022-11-18T07:44:11;10.60;64.40
12981;DHT22;6555;50.468;8.480;2022-11-18T07:49:15;10.60;64.40
12981;DHT22;6555;50.468;8.480;2022-11-18T07:54:18;10.70;64.50
12981;DHT22;6555;50.468;8.480;2022-11-18T07:59:21;10.70;65.10
12981;DHT22;6555;50.468;8.480;2022-11-18T08:04:26;10.70;64.50
12981;DHT22;6555;50.468;8.480;2022-11-18T08:09:29;10.70;64.60
12981;DHT22;6555;50.468;8.480;2022-11-18T08:14:32;10.80;64.70
12981;DHT22;6555;50.468;8.480;2022-11-18T08:19:36;10.90;64.90
12981;DHT22;6555;50.468;8.480;2022-11-18T08:24:39;10.90;64.90
12981;DHT22;6555;50.468;8.480;2022-11-18T08:29:42;11.00;64.90
12981;DHT22;6555;50.468;8.480;2022-11-18T08:34:47;11.10;65.30
12981;DHT22;6555;50.468;8.480;2022-11-18T08:39:50;11.20;65.40
12981;DHT22;6555;50.468;8.480;2022-11-18T08:44:52;11.40;65.40
12981;DHT22;6555;50.468;8.480;2022-11-18T08:49:57;11.50;65.40
12981;DHT22;6555;50.468;8.480;2022-11-18T08:55:00;11.50;65.30
12981;DHT22;6555;50.468;8.480;2022-11-18T09:00:04;11.70;65.30
12981;DHT22;6555;50.468;8.480;2022-11-18T09:05:10;11.70;65.20
12981;DHT22;6555;50.468;8.480;2022-11-18T09:10:13;11.70;65.00
12981;DHT22;6555;50.468;8.480;2022-11-18T09:15:16;11.70;65.00
12981;DHT22;6555;50.468;8.480;2022-11-18T09:20:21;11.70;65.10
12981;DHT22;6555;50.468;8.480;2022-11-18T09:25:24;11.80;65.20
12981;DHT22;6555;50.468;8.480;2022-11-18T09:30:27;11.90;65.20
12981;DHT22;6555;50.468;8.480;2022-11-18T09:35:32;11.90;65.10
12981;DHT22;6555;50.468;8.480;2022-11-18T09:40:42;12.00;65.20
12981;DHT22;6555;50.468;8.480;2022-11-18T09:45:52;12.00;65.40
12981;DHT22;6555;50.468;8.480;2022-11-18T09:50:57;12.10;65.50
12981;DHT22;6555;50.468;8.480;2022-11-18T09:56:02;12.10;65.40
12981;DHT22;6555;50.468;8.480;2022-11-18T10:01:11;12.20;65.50
12981;DHT22;6555;50.468;8.480;2022-11-18T10:06:21;12.30;65.60
12981;DHT22;6555;50.468;8.480;2022-11-18T10:11:30;12.30;65.50
12981;DHT22;6555;50.468;8.480;2022-11-18T10:16:46;12.30;65.50
12981;DHT22;6555;50.468;8.480;2022-11-18T10:22:11;12.40;65.40
12981;DHT22;6555;50.468;8.480;2022-11-18T10:27:39;12.40;65.60
12981;DHT22;6555;50.468;8.480;2022-11-18T10:32:59;12.50;65.60
12981;DHT22;6555;50.468;8.480;2022-11-18T10:38:05;12.50;65.80
12981;DHT22;6555;50.468;8.480;2022-11-18T10:43:10;12.60;65.50
12981;DHT22;6555;50.468;8.480;2022-11-18T10:48:16;12.60;65.30
12981;DHT22;6555;50.468;8.480;2022-11-18T10:53:30;12.60;65.20
12981;DHT22;6555;50.468;8.480;2022-11-18T10:58:34;12.60;65.40
12981;DHT22;6555;50.468;8.480;2022-11-18T11:03:40;12.60;65.20
12981;DHT22;6555;50.468;8.480;2022-11-18T11:08:48;12.70;65.40
12981;DHT22;6555;50.468;8.480;2022-11-18T11:13:54;12.70;65.40
12981;DHT22;6555;50.468;8.480;2022-11-18T11:19:01;12.70;65.30
12981;DHT22;6555;50.468;8.480;2022-11-18T11:24:10;12.70;65.20
12981;DHT22;6555;50.468;8.480;2022-11-18T11:29:21;12.70;65.10
12981;DHT22;6555;50.468;8.480;2022-11-18T11:34:33;12.70;65.20
12981;DHT22;6555;50.468;8.480;2022-11-18T11:39:48;12.70;65.30
12981;DHT22;6555;50.468;8.480;2022-11-18T11:45:04;12.60;65.10
12981;DHT22;6555;50.468;8.480;2022-11-18T11:50:15;12.60;65.20
12981;DHT22;6555;50.468;8.480;2022-11-18T11:55:25;12.60;65.20
12981;DHT22;6555;50.468;8.480;2022-11-18T12:00:34;12.70;66.20
12981;DHT22;6555;50.468;8.480;2022-11-18T12:05:41;12.70;65.60
12981;DHT22;6555;50.468;8.480;2022-11-18T12:10:50;12.70;65.40
12981;DHT22;6555;50.468;8.480;2022-11-18T12:16:05;12.70;65.60
12981;DHT22;6555;50.468;8.480;2022-11-18T12:26:50;12.90;65.90
12981;DHT22;6555;50.468;8.480;2022-11-18T12:31:54;12.90;65.70
12981;DHT22;6555;50.468;8.480;2022-11-18T12:37:41;13.00;65.60
12981;DHT22;6555;50.468;8.480;2022-11-18T12:42:46;13.10;65.60
12981;DHT22;6555;50.468;8.480;2022-11-18T12:48:45;13.10;65.40
12981;DHT22;6555;50.468;8.480;2022-11-18T12:53:49;13.10;65.40
12981;DHT22;6555;50.468;8.480;2022-11-18T12:58:56;13.20;65.10
12981;DHT22;6555;50.468;8.480;2022-11-18T13:04:05;13.20;64.80
12981;DHT22;6555;50.468;8.480;2022-11-18T13:09:14;13.10;64.60
12981;DHT22;6555;50.468;8.480;2022-11-18T13:14:28;13.10;64.90
12981;DHT22;6555;50.468;8.480;2022-11-18T13:19:56;13.10;65.00
12981;DHT22;6555;50.468;8.480;2022-11-18T13:24:59;13.20;65.40
12981;DHT22;6555;50.468;8.480;2022-11-18T13:30:08;13.20;66.10
12981;DHT22;6555;50.468;8.480;2022-11-18T13:35:14;13.50;66.30
12981;DHT22;6555;50.468;8.480;2022-11-18T13:40:20;13.60;66.00
12981;DHT22;6555;50.468;8.480;2022-11-18T13:45:26;13.70;65.50
12981;DHT22;6555;50.468;8.480;2022-11-18T13:50:32;13.90;65.10
12981;DHT22;6555;50.468;8.480;2022-11-18T13:55:38;13.90;64.60
12981;DHT22;6555;50.468;8.480;2022-11-18T14:00:53;13.80;64.20
12981;DHT22;6555;50.468;8.480;2022-11-18T14:05:57;13.80;64.20
12981;DHT22;6555;50.468;8.480;2022-11-18T14:11:02;13.80;64.30
12981;DHT22;6555;50.468;8.480;2022-11-18T14:16:32;13.70;64.40
12981;DHT22;6555;50.468;8.480;2022-11-18T14:21:36;13.70;64.50
12981;DHT22;6555;50.468;8.480;2022-11-18T14:26:39;13.80;64.70
12981;DHT22;6555;50.468;8.480;2022-11-18T14:31:44;13.90;64.80
12981;DHT22;6555;50.468;8.480;2022-11-18T14:36:47;13.90;64.20
12981;DHT22;6555;50.468;8.480;2022-11-18T14:41:51;13.90;64.10
12981;DHT22;6555;50.468;8.480;2022-11-18T14:46:57;13.90;64.10
12981;DHT22;6555;50.468;8.480;2022-11-18T14:52:01;13.80;63.70
12981;DHT22;6555;50.468;8.480;2022-11-18T14:57:05;13.70;63.50
12981;DHT22;6555;50.468;8.480;2022-11-18T15:02:14;13.60;63.30
12981;DHT22;6555;50.468;8.480;2022-11-18T15:07:18;13.50;63.10
12981;DHT22;6555;50.468;8.480;2022-11-18T15:12:25;13.40;63.20
12981;DHT22;6555;50.468;8.480;2022-11-18T15:17:29;13.30;63.40
12981;DHT22;6555;50.468;8.480;2022-11-18T15:22:32;13.20;63.30
12981;DHT22;6555;50.468;8.480;2022-11-18T15:27:36;13.10;63.40
12981;DHT22;6555;50.468;8.480;2022-11-18T15:32:41;13.00;63.30
12981;DHT22;6555;50.468;8.480;2022-11-18T15:37:44;12.90;62.90
12981;DHT22;6555;50.468;8.480;2022-11-18T15:42:47;12.80;63.30
12981;DHT22;6555;50.468;8.480;2022-11-18T15:47:54;12.60;62.50
12981;DHT22;6555;50.468;8.480;2022-11-18T15:52:57;12.40;62.60
12981;DHT22;6555;50.468;8.480;2022-11-18T15:58:00;12.30;62.70
12981;DHT22;6555;50.468;8.480;2022-11-18T16:03:05;12.10;62.70
12981;DHT22;6555;50.468;8.480;2022-11-18T16:08:08;12.00;62.90
12981;DHT22;6555;50.468;8.480;2022-11-18T16:13:11;11.90;63.10
12981;DHT22;6555;50.468;8.480;2022-11-18T16:18:16;11.90;63.20
12981;DHT22;6555;50.468;8.480;2022-11-18T16:23:20;11.80;63.00
12981;DHT22;6555;50.468;8.480;2022-11-18T16:28:23;11.70;63.00
12981;DHT22;6555;50.468;8.480;2022-11-18T16:33:27;11.70;63.00
12981;DHT22;6555;50.468;8.480;2022-11-18T16:38:30;11.60;62.80
12981;DHT22;6555;50.468;8.480;2022-11-18T16:43:33;11.50;62.80
12981;DHT22;6555;50.468;8.480;2022-11-18T16:48:38;11.50;62.70
12981;DHT22;6555;50.468;8.480;2022-11-18T16:53:41;11.30;62.80
12981;DHT22;6555;50.468;8.480;2022-11-18T16:58:44;11.30;62.80
12981;DHT22;6555;50.468;8.480;2022-11-18T17:03:51;11.20;62.50
12981;DHT22;6555;50.468;8.480;2022-11-18T17:08:54;11.10;62.60
12981;DHT22;6555;50.468;8.480;2022-11-18T17:13:57;11.00;62.70
12981;DHT22;6555;50.468;8.480;2022-11-18T17:19:02;10.90;62.90
12981;DHT22;6555;50.468;8.480;2022-11-18T17:24:14;10.90;62.90
12981;DHT22;6555;50.468;8.480;2022-11-18T17:29:18;10.80;62.70
12981;DHT22;6555;50.468;8.480;2022-11-18T17:34:23;10.80;63.00
12981;DHT22;6555;50.468;8.480;2022-11-18T17:39:26;10.80;63.20
12981;DHT22;6555;50.468;8.480;2022-11-18T17:44:29;10.70;63.20
12981;DHT22;6555;50.468;8.480;2022-11-18T17:49:33;10.70;62.90
12981;DHT22;6555;50.468;8.480;2022-11-18T17:54:37;10.70;63.00
12981;DHT22;6555;50.468;8.480;2022-11-18T17:59:40;10.60;63.20
12981;DHT22;6555;50.468;8.480;2022-11-18T18:04:44;10.60;63.30
12981;DHT22;6555;50.468;8.480;2022-11-18T18:09:47;10.60;63.30
12981;DHT22;6555;50.468;8.480;2022-11-18T18:14:50;10.50;63.30
12981;DHT22;6555;50.468;8.480;2022-11-18T18:19:55;10.50;63.20
12981;DHT22;6555;50.468;8.480;2022-11-18T18:24:58;10.50;63.20
12981;DHT22;6555;50.468;8.480;2022-11-18T18:30:01;10.50;63.20
12981;DHT22;6555;50.468;8.480;2022-11-18T18:35:06;10.40;63.10
12981;DHT22;6555;50.468;8.480;2022-11-18T18:40:10;10.40;63.20
12981;DHT22;6555;50.468;8.480;2022-11-18T18:45:14;10.40;63.00
12981;DHT22;6555;50.468;8.480;2022-11-18T18:50:36;10.30;63.10
12981;DHT22;6555;50.468;8.480;2022-11-18T18:55:39;10.30;62.70
12981;DHT22;6555;50.468;8.480;2022-11-18T19:00:45;10.20;62.50
12981;DHT22;6555;50.468;8.480;2022-11-18T19:05:50;10.10;62.80
12981;DHT22;6555;50.468;8.480;2022-11-18T19:11:13;10.00;62.80
12981;DHT22;6555;50.468;8.480;2022-11-18T19:16:34;10.00;63.00
12981;DHT22;6555;50.468;8.480;2022-11-18T19:21:39;9.90;63.20
12981;DHT22;6555;50.468;8.480;2022-11-18T19:26:43;9.90;63.40
12981;DHT22;6555;50.468;8.480;2022-11-18T19:31:46;10.00;63.30
12981;DHT22;6555;50.468;8.480;2022-11-18T19:36:50;10.00;63.40
12981;DHT22;6555;50.468;8.480;2022-11-18T19:41:55;10.00;63.40
12981;DHT22;6555;50.468;8.480;2022-11-18T19:46:59;10.00;63.30
12981;DHT22;6555;50.468;8.480;2022-11-18T19:52:03;10.00;63.40
12981;DHT22;6555;50.468;8.480;2022-11-18T19:57:06;10.00;63.30
12981;DHT22;6555;50.468;8.480;2022-11-18T20:02:10;10.00;63.50
12981;DHT22;6555;50.468;8.480;2022-11-18T20:07:14;10.00;63.50
12981;DHT22;6555;50.468;8.480;2022-11-18T20:12:17;10.00;63.20
12981;DHT22;6555;50.468;8.480;2022-11-18T20:17:21;9.90;63.00
12981;DHT22;6555;50.468;8.480;2022-11-18T20:22:26;9.90;62.90
12981;DHT22;6555;50.468;8.480;2022-11-18T20:27:29;9.80;62.90
12981;DHT22;6555;50.468;8.480;2022-11-18T20:32:32;9.80;62.90
12981;DHT22;6555;50.468;8.480;2022-11-18T20:37:36;9.80;63.20
12981;DHT22;6555;50.468;8.480;2022-11-18T20:42:39;9.80;63.20
12981;DHT22;6555;50.468;8.480;2022-11-18T20:47:59;9.70;63.10
12981;DHT22;6555;50.468;8.480;2022-11-18T20:53:04;9.70;63.30
12981;DHT22;6555;50.468;8.480;2022-11-18T20:58:07;9.70;63.70
12981;DHT22;6555;50.468;8.480;2022-11-18T21:03:11;9.80;64.00
12981;DHT22;6555;50.468;8.480;2022-11-18T21:08:15;9.80;64.00
12981;DHT22;6555;50.468;8.480;2022-11-18T21:13:18;9.90;64.10
12981;DHT22;6555;50.468;8.480;2022-11-18T21:18:39;9.90;64.10
12981;DHT22;6555;50.468;8.480;2022-11-18T21:23:43;10.00;64.10
12981;DHT22;6555;50.468;8.480;2022-11-18T21:28:46;10.10;64.10
12981;DHT22;6555;50.468;8.480;2022-11-18T21:33:51;10.10;63.90
12981;DHT22;6555;50.468;8.480;2022-11-18T21:38:57;10.10;63.40
12981;DHT22;6555;50.468;8.480;2022-11-18T21:44:00;10.00;63.00
12981;DHT22;6555;50.468;8.480;2022-11-18T21:49:07;9.90;63.20
12981;DHT22;6555;50.468;8.480;2022-11-18T21:54:12;9.80;63.00
12981;DHT22;6555;50.468;8.480;2022-11-18T21:59:19;9.70;62.90
12981;DHT22;6555;50.468;8.480;2022-11-18T22:04:23;9.60;62.80
12981;DHT22;6555;50.468;8.480;2022-11-18T22:09:45;9.50;62.70
12981;DHT22;6555;50.468;8.480;2022-11-18T22:14:48;9.40;62.60
12981;DHT22;6555;50.468;8.480;2022-11-18T22:19:52;9.20;62.50
12981;DHT22;6555;50.468;8.480;2022-11-18T22:24:56;9.20;62.60
12981;DHT22;6555;50.468;8.480;2022-11-18T22:29:59;9.10;62.60
12981;DHT22;6555;50.468;8.480;2022-11-18T22:35:02;8.90;62.60
12981;DHT22;6555;50.468;8.480;2022-11-18T22:40:08;8.90;62.60
12981;DHT22;6555;50.468;8.480;2022-11-18T22:45:11;8.80;62.50
12981;DHT22;6555;50.468;8.480;2022-11-18T22:50:15;8.70;62.60
12981;DHT22;6555;50.468;8.480;2022-11-18T22:55:19;8.60;62.50
12981;DHT22;6555;50.468;8.480;2022-11-18T23:00:22;8.50;62.50
12981;DHT22;6555;50.468;8.480;2022-11-18T23:05:26;8.50;62.40
12981;DHT22;6555;50.468;8.480;2022-11-18T23:10:30;8.40;62.30
12981;DHT22;6555;50.468;8.480;2022-11-18T23:15:33;8.30;62.10
12981;DHT22;6555;50.468;8.480;2022-11-18T23:20:36;8.20;62.00
12981;DHT22;6555;50.468;8.480;2022-11-18T23:25:41;8.00;61.80
12981;DHT22;6555;50.468;8.480;2022-11-18T23:30:44;7.90;62.00
12981;DHT22;6555;50.468;8.480;2022-11-18T23:35:51;7.80;62.10
12981;DHT22;6555;50.468;8.480;2022-11-18T23:40:56;7.70;62.20
12981;DHT22;6555;50.468;8.480;2022-11-18T23:45:59;7.70;62.20
12981;DHT22;6555;50.468;8.480;2022-11-18T23:51:03;7.60;62.20
12981;DHT22;6555;50.468;8.480;2022-11-18T23:56:09;7.60;62.90
